Humidity-temperature Sensor

Selected Measurement Type: Air Temperature

 
Air Temperature [°C]     6 entries per hour
Showing data from 1/12/2021 (00:00:00 Z) to 1/11/2021 (00:01:00 Z)
Previous Next [ Day | 3-Days | 7-Days ]
First Last
Prev [ Day | 3-Days | 7-Days ] Next
First Last

Start Time:     :
End Time:     :     
Time (in GMT) :00 :50 :40 :30 :20 :10
Previous Next [ Day | 3-Days | 7-Days ]
First Last
Prev [ Day | 3-Days | 7-Days ] Next
First Last


123 => good data
MM => data is determined as missing
-- => data not received/configured
Back to Top Back to Top
1/12/2021 00:00 to 23:10 23.69 23.71 23.84 23.76 23.73 23.70
1/11/2021 23:00 to 22:10 23.76 23.71 23.68 23.63 23.60 23.56
1/11/2021 22:00 to 21:10 23.49 23.54 23.38 23.38 23.33 23.28
1/11/2021 21:00 to 20:10 23.33 23.23 23.31 23.30 23.37 23.33
1/11/2021 20:00 to 19:10 23.34 23.29 23.29 23.34 23.30 23.35
1/11/2021 19:00 to 18:10 23.32 23.42 23.32 23.32 23.27 23.42
1/11/2021 18:00 to 17:10 23.34 23.46 23.38 23.34 23.38 23.49
1/11/2021 17:00 to 16:10 23.55 23.61 23.66 23.67 23.63 23.55
1/11/2021 16:00 to 15:10 23.49 23.47 23.34 23.32 23.11 23.11
1/11/2021 15:00 to 14:10 22.99 22.91 22.89 22.86 22.81 22.78
1/11/2021 14:00 to 13:10 22.70 22.68 22.61 22.62 22.49 22.37
1/11/2021 13:00 to 12:10 22.34 22.28 22.28 22.26 22.16 22.21
1/11/2021 12:00 to 11:10 22.21 22.26 22.24 22.26 22.28 22.27
1/11/2021 11:00 to 10:10 22.32 22.32 22.26 22.29 22.24 22.30
1/11/2021 10:00 to 9:10 22.26 22.23 22.25 22.23 22.19 22.31
1/11/2021 09:00 to 8:10 22.30 22.31 22.36 22.37 22.38 22.42
1/11/2021 08:00 to 7:10 22.40 22.42 22.35 22.41 22.38 22.38
1/11/2021 07:00 to 6:10 22.37 22.38 22.40 22.40 22.40 22.42
1/11/2021 06:00 to 5:10 22.46 22.50 22.51 22.51 22.53 22.53
1/11/2021 05:00 to 4:10 22.55 22.57 22.59 22.61 22.59 22.63
1/11/2021 04:00 to 3:10 22.65 22.63 22.68 22.67 22.71 22.75
1/11/2021 03:00 to 2:10 22.70 22.71 22.77 22.80 22.73 22.81
1/11/2021 02:00 to 1:10 22.79 22.80 22.84 22.78 22.80 22.86
1/11/2021 01:00 to 0:10 22.81 22.79 22.84 22.90 23.02 23.11